createdAt,value
2023-01-13T00:01:26.831Z,101733.78
2023-01-13T00:03:54.147Z,101733.72
2023-01-13T00:06:25.732Z,101742.25
2023-01-13T00:08:53.890Z,101738.31
2023-01-13T00:11:22.380Z,101738.13
2023-01-13T00:13:49.659Z,101742.00
2023-01-13T00:16:18.878Z,101726.97
2023-01-13T00:18:47.194Z,101720.72
2023-01-13T00:21:18.256Z,101722.53
2023-01-13T00:23:47.083Z,101724.94
2023-01-13T00:26:17.978Z,101720.69
2023-01-13T00:28:45.473Z,101713.75
2023-01-13T00:31:15.986Z,101714.44
2023-01-13T00:33:43.561Z,101714.88
2023-01-13T00:36:18.446Z,101701.97
2023-01-13T00:38:45.967Z,101708.72
2023-01-13T00:41:16.826Z,101691.94
2023-01-13T00:43:45.531Z,101673.09
2023-01-13T00:46:14.950Z,101676.03
2023-01-13T00:48:42.649Z,101681.22
2023-01-13T00:51:15.390Z,101687.34
2023-01-13T00:53:45.421Z,101672.88
2023-01-13T00:56:19.983Z,101681.16
2023-01-13T00:58:52.181Z,101677.47
2023-01-13T01:01:22.791Z,101673.47
2023-01-13T01:03:52.285Z,101669.25
2023-01-13T01:06:22.360Z,101666.94
2023-01-13T01:08:50.022Z,101667.94
2023-01-13T01:11:20.935Z,101675.75
2023-01-13T01:13:52.019Z,101653.19
2023-01-13T01:16:21.564Z,101654.03
2023-01-13T01:18:50.412Z,101656.78
2023-01-13T01:21:18.491Z,101656.13
2023-01-13T01:23:46.371Z,101665.09
2023-01-13T01:26:16.820Z,101651.81
2023-01-13T01:28:45.248Z,101660.31
2023-01-13T01:31:22.375Z,101653.38
2023-01-13T01:33:50.563Z,101641.72
2023-01-13T01:36:19.860Z,101652.34
2023-01-13T01:38:49.343Z,101653.81
2023-01-13T01:41:22.586Z,101647.31
2023-01-13T01:44:04.212Z,101653.75
2023-01-13T01:46:40.658Z,101648.13
2023-01-13T01:49:31.603Z,101637.38
2023-01-13T01:52:04.356Z,101635.63
2023-01-13T01:54:40.580Z,101629.78
2023-01-13T01:57:11.598Z,101633.94
2023-01-13T01:59:39.611Z,101634.16
2023-01-13T02:02:08.513Z,101634.31
2023-01-13T02:04:40.387Z,101632.94
2023-01-13T02:07:08.114Z,101631.53
2023-01-13T02:09:36.623Z,101624.38
2023-01-13T02:12:23.369Z,101616.66
2023-01-13T02:14:51.270Z,101612.66
2023-01-13T02:17:21.925Z,101610.03
2023-01-13T02:19:58.505Z,101598.28
2023-01-13T02:22:38.908Z,101599.97
2023-01-13T02:25:06.199Z,101602.28
2023-01-13T02:27:53.954Z,101593.34
2023-01-13T02:31:04.972Z,101603.09
2023-01-13T02:33:46.579Z,101609.63
2023-01-13T02:36:32.889Z,101616.41
2023-01-13T02:39:07.458Z,101607.06
2023-01-13T02:42:01.564Z,101595.94
2023-01-13T02:44:42.089Z,101588.22
2023-01-13T02:47:16.381Z,101588.50
2023-01-13T02:49:51.033Z,101588.16
2023-01-13T02:52:28.951Z,101582.53
2023-01-13T02:55:03.059Z,101587.25
2023-01-13T02:57:34.228Z,101578.19
2023-01-13T03:00:04.721Z,101570.34
2023-01-13T03:02:32.703Z,101566.56
2023-01-13T03:05:00.764Z,101572.22
2023-01-13T03:07:56.934Z,101581.81
2023-01-13T03:10:27.029Z,101578.84
2023-01-13T03:13:21.762Z,101584.84
2023-01-13T03:15:55.803Z,101586.84
2023-01-13T03:18:30.373Z,101574.94
2023-01-13T03:21:07.178Z,101565.91
2023-01-13T03:23:48.927Z,101572.19
2023-01-13T03:26:20.287Z,101569.22
2023-01-13T03:29:07.150Z,101575.22
2023-01-13T03:31:40.398Z,101564.34
2023-01-13T03:34:18.091Z,101575.09
2023-01-13T03:36:48.562Z,101567.72
2023-01-13T03:39:23.893Z,101558.66
2023-01-13T03:42:01.491Z,101578.28
2023-01-13T03:44:59.034Z,101576.31
2023-01-13T03:47:47.381Z,101581.50
2023-01-13T03:50:35.658Z,101573.88
2023-01-13T03:53:10.198Z,101577.53
2023-01-13T03:55:47.189Z,101581.97
2023-01-13T03:58:26.492Z,101584.66
2023-01-13T04:01:00.172Z,101583.03
2023-01-13T04:03:44.411Z,101587.06
2023-01-13T04:06:17.776Z,101589.34
2023-01-13T04:08:58.509Z,101584.94
2023-01-13T04:11:35.222Z,101593.84
2023-01-13T04:14:04.973Z,101591.31
2023-01-13T04:16:32.605Z,101582.94
2023-01-13T04:19:00.502Z,101578.81
2023-01-13T04:21:29.433Z,101588.91
2023-01-13T04:23:56.851Z,101586.94
2023-01-13T04:26:24.442Z,101583.91
2023-01-13T04:28:54.604Z,101579.94
2023-01-13T04:31:22.984Z,101584.56
2023-01-13T04:33:50.377Z,101580.34
2023-01-13T04:36:19.622Z,101568.34
2023-01-13T04:38:47.072Z,101581.78
2023-01-13T04:41:14.784Z,101597.69
2023-01-13T04:43:43.064Z,101590.09
2023-01-13T04:46:10.445Z,101585.56
2023-01-13T04:48:37.886Z,101578.19
2023-01-13T04:51:05.346Z,101592.44
2023-01-13T04:53:33.085Z,101592.56
2023-01-13T04:56:00.418Z,101591.50
2023-01-13T04:58:27.679Z,101594.28
2023-01-13T05:00:55.580Z,101599.00
2023-01-13T05:03:24.388Z,101594.81
2023-01-13T05:05:52.511Z,101600.84
2023-01-13T05:08:20.267Z,101591.72
2023-01-13T05:10:48.109Z,101599.97
2023-01-13T05:13:34.060Z,101592.22
2023-01-13T05:16:19.963Z,101582.72
2023-01-13T05:18:49.466Z,101587.31
2023-01-13T05:21:36.039Z,101584.72
2023-01-13T05:24:21.782Z,101587.41
2023-01-13T05:26:49.139Z,101591.84
2023-01-13T05:29:16.379Z,101592.69
2023-01-13T05:31:44.100Z,101590.88
2023-01-13T05:34:11.478Z,101595.50
2023-01-13T05:36:38.831Z,101602.00
2023-01-13T05:39:06.086Z,101600.25
2023-01-13T05:41:52.330Z,101600.06
2023-01-13T05:44:19.640Z,101607.56
2023-01-13T05:46:47.044Z,101592.84
2023-01-13T05:49:14.416Z,101585.41
2023-01-13T05:51:42.663Z,101602.22
2023-01-13T05:54:10.498Z,101601.81
2023-01-13T05:56:37.757Z,101598.56
2023-01-13T05:59:05.073Z,101607.66
2023-01-13T06:01:32.792Z,101618.47
2023-01-13T06:04:00.196Z,101624.38
2023-01-13T06:06:27.569Z,101620.25
2023-01-13T06:08:55.610Z,101632.25
2023-01-13T06:11:23.342Z,101632.91
2023-01-13T06:13:50.761Z,101623.16
2023-01-13T06:16:18.567Z,101623.28
2023-01-13T06:18:45.998Z,101634.13
2023-01-13T06:21:13.451Z,101634.91
2023-01-13T06:23:40.813Z,101628.22
2023-01-13T06:26:21.464Z,101619.47
2023-01-13T06:28:50.072Z,101620.47
2023-01-13T06:31:18.492Z,101619.09
2023-01-13T06:33:54.674Z,101631.63
2023-01-13T06:36:41.650Z,101633.63
2023-01-13T06:39:11.677Z,101639.34
2023-01-13T06:41:58.691Z,101643.66
2023-01-13T06:44:26.548Z,101658.56
2023-01-13T06:46:53.953Z,101652.41
2023-01-13T06:49:21.824Z,101645.84
2023-01-13T06:51:49.787Z,101638.59
2023-01-13T06:54:17.085Z,101645.59
2023-01-13T06:56:44.405Z,101634.97
2023-01-13T06:59:11.806Z,101644.84
2023-01-13T07:01:39.732Z,101647.13
2023-01-13T07:04:07.564Z,101640.31
2023-01-13T07:06:34.913Z,101647.91
2023-01-13T07:09:03.055Z,101649.09
2023-01-13T07:11:31.417Z,101645.06
2023-01-13T07:14:19.540Z,101646.78
2023-01-13T07:16:47.793Z,101638.44
2023-01-13T07:19:15.891Z,101647.28
2023-01-13T07:21:43.837Z,101659.53
2023-01-13T07:24:11.749Z,101645.19
2023-01-13T07:26:39.473Z,101634.91
2023-01-13T07:29:06.960Z,101638.53
2023-01-13T07:31:34.764Z,101643.59
2023-01-13T07:34:03.184Z,101634.75
2023-01-13T07:36:30.474Z,101641.50
2023-01-13T07:38:58.016Z,101650.31
2023-01-13T07:41:43.913Z,101650.31
2023-01-13T07:44:11.287Z,101651.72
2023-01-13T07:46:39.491Z,101641.28
2023-01-13T07:49:08.959Z,101643.03
2023-01-13T07:51:38.585Z,101641.84
2023-01-13T07:54:06.094Z,101631.53
2023-01-13T07:56:33.762Z,101635.38
2023-01-13T07:59:01.571Z,101637.31
2023-01-13T08:01:31.796Z,101630.34
2023-01-13T08:03:59.183Z,101626.25
2023-01-13T08:06:26.855Z,101628.41
2023-01-13T08:08:54.244Z,101628.25
2023-01-13T08:11:23.510Z,101633.94
2023-01-13T08:13:56.292Z,101621.16
2023-01-13T08:16:24.189Z,101616.53
2023-01-13T08:18:51.587Z,101618.00
2023-01-13T08:21:19.082Z,101629.69
2023-01-13T08:23:47.397Z,101617.69
2023-01-13T08:26:17.416Z,101617.00
2023-01-13T08:28:45.402Z,101632.69
2023-01-13T08:31:16.152Z,101637.97
2023-01-13T08:33:43.901Z,101645.94
2023-01-13T08:36:12.397Z,101641.06
2023-01-13T08:38:42.382Z,101648.72
2023-01-13T08:41:16.085Z,101658.06
2023-01-13T08:43:43.473Z,101693.13
2023-01-13T08:46:10.904Z,101700.56
2023-01-13T08:48:38.329Z,101686.53
2023-01-13T08:51:08.736Z,101675.44
2023-01-13T08:53:36.232Z,101701.03
2023-01-13T08:56:07.691Z,101702.94
2023-01-13T08:58:34.947Z,101709.56
2023-01-13T09:01:06.586Z,101691.22
2023-01-13T09:03:34.537Z,101689.44
2023-01-13T09:06:02.173Z,101692.50
2023-01-13T09:08:29.923Z,101703.84
2023-01-13T09:10:57.729Z,101711.28
2023-01-13T09:13:25.397Z,101711.50
2023-01-13T09:15:56.314Z,101697.50
2023-01-13T09:18:23.948Z,101703.88
2023-01-13T09:20:51.361Z,101703.34
2023-01-13T09:23:18.678Z,101704.78
2023-01-13T09:25:46.181Z,101702.44
2023-01-13T09:28:13.996Z,101691.34
2023-01-13T09:30:41.357Z,101683.34
2023-01-13T09:33:27.891Z,101663.75
2023-01-13T09:35:59.130Z,101653.34
2023-01-13T09:38:27.618Z,101663.56
2023-01-13T09:40:55.722Z,101661.91
2023-01-13T09:43:55.844Z,101658.47
2023-01-13T09:46:47.176Z,101664.91
2023-01-13T09:49:22.056Z,101669.28
2023-01-13T09:51:58.673Z,101678.50
2023-01-13T09:54:35.078Z,101687.75
2023-01-13T09:57:10.053Z,101694.56
2023-01-13T09:59:38.698Z,101700.75
2023-01-13T10:02:32.750Z,101699.47
2023-01-13T10:05:21.731Z,101691.09
2023-01-13T10:08:02.794Z,101683.31
2023-01-13T10:10:38.714Z,101680.09
2023-01-13T10:13:16.329Z,101675.97
2023-01-13T10:16:03.846Z,101676.81
2023-01-13T10:18:57.904Z,101675.81
2023-01-13T10:21:44.439Z,101654.81
2023-01-13T10:24:33.780Z,101655.94
2023-01-13T10:27:24.515Z,101648.53
2023-01-13T10:29:52.291Z,101650.38
2023-01-13T10:32:19.673Z,101646.25
2023-01-13T10:34:52.297Z,101640.56
2023-01-13T10:37:27.684Z,101634.88
2023-01-13T10:39:58.094Z,101624.09
2023-01-13T10:42:25.882Z,101625.66
2023-01-13T10:44:57.070Z,101617.94
2023-01-13T10:47:37.585Z,101617.25
2023-01-13T10:50:11.437Z,101620.88
2023-01-13T10:53:14.154Z,101631.59
2023-01-13T10:56:14.441Z,101629.72
2023-01-13T10:58:51.887Z,101640.03
2023-01-13T11:01:26.088Z,101646.09
2023-01-13T11:03:55.666Z,101628.69
2023-01-13T11:06:26.588Z,101633.41
2023-01-13T11:08:58.096Z,101639.69
2023-01-13T11:11:41.362Z,101641.41
2023-01-13T11:14:41.606Z,101633.59
2023-01-13T11:17:32.019Z,101623.69
2023-01-13T11:20:20.429Z,101612.50
2023-01-13T11:22:52.900Z,101613.56
2023-01-13T11:25:41.358Z,101620.16
2023-01-13T11:28:53.535Z,101615.59
2023-01-13T11:31:52.245Z,101610.50
2023-01-13T11:34:30.411Z,101608.28
2023-01-13T11:37:00.905Z,101593.91
2023-01-13T11:39:50.007Z,101585.78
2023-01-13T11:42:48.574Z,101586.41
2023-01-13T11:45:32.496Z,101578.44
2023-01-13T11:48:02.443Z,101571.63
2023-01-13T11:50:50.647Z,101570.28
2023-01-13T11:53:30.408Z,101568.88
2023-01-13T11:56:29.290Z,101554.47
2023-01-13T11:59:22.226Z,101548.22
2023-01-13T12:02:14.526Z,101549.63
2023-01-13T12:04:47.981Z,101544.56
2023-01-13T12:07:36.613Z,101539.31
2023-01-13T12:10:13.550Z,101527.97
2023-01-13T12:12:47.548Z,101529.16
2023-01-13T12:15:24.209Z,101533.38
2023-01-13T12:18:10.777Z,101525.81
2023-01-13T12:21:00.078Z,101524.94
2023-01-13T12:23:35.699Z,101515.53
2023-01-13T12:26:10.344Z,101510.31
2023-01-13T12:29:07.646Z,101515.09
2023-01-13T12:31:38.553Z,101514.88
2023-01-13T12:34:33.664Z,101516.91
2023-01-13T12:37:28.862Z,101510.16
2023-01-13T12:40:03.879Z,101499.81
2023-01-13T12:43:21.703Z,101496.38
2023-01-13T12:45:49.170Z,101487.50
2023-01-13T12:48:57.105Z,101493.34
2023-01-13T12:51:33.462Z,101477.06
2023-01-13T12:54:02.692Z,101473.03
2023-01-13T12:56:38.848Z,101470.69
2023-01-13T12:59:33.763Z,101469.81
2023-01-13T13:02:10.990Z,101472.25
2023-01-13T13:04:52.685Z,101477.16
2023-01-13T13:07:51.329Z,101457.66
2023-01-13T13:10:28.805Z,101460.22
2023-01-13T13:13:17.813Z,101439.00
2023-01-13T13:15:52.462Z,101431.88
2023-01-13T13:18:23.878Z,101430.63
2023-01-13T13:20:57.460Z,101426.78
2023-01-13T13:23:43.568Z,101427.81
2023-01-13T13:26:30.896Z,101415.94
2023-01-13T13:28:58.663Z,101413.41
2023-01-13T13:31:38.002Z,101405.25
2023-01-13T13:34:17.251Z,101418.97
2023-01-13T13:36:44.544Z,101418.94
2023-01-13T13:39:45.165Z,101421.34
2023-01-13T13:42:37.445Z,101417.81
2023-01-13T13:45:44.988Z,101422.38
2023-01-13T13:48:31.308Z,101418.81
2023-01-13T13:51:02.885Z,101423.56
2023-01-13T13:53:34.605Z,101424.94
2023-01-13T13:56:04.719Z,101437.66
2023-01-13T13:58:36.881Z,101432.22
2023-01-13T14:01:05.307Z,101439.00
2023-01-13T14:03:38.367Z,101442.72
2023-01-13T14:06:20.794Z,101443.22
2023-01-13T14:08:50.435Z,101452.25
2023-01-13T14:11:33.277Z,101448.47
2023-01-13T14:14:18.179Z,101438.28
2023-01-13T14:16:46.695Z,101439.97
2023-01-13T14:19:36.702Z,101436.88
2023-01-13T14:22:05.168Z,101436.44
2023-01-13T14:24:33.112Z,101428.44
2023-01-13T14:27:17.704Z,101429.81
2023-01-13T14:29:45.687Z,101421.00
2023-01-13T14:32:18.453Z,101422.38
2023-01-13T14:34:47.352Z,101415.44
2023-01-13T14:37:38.510Z,101420.78
2023-01-13T14:40:06.902Z,101423.69
2023-01-13T14:42:35.597Z,101427.50
2023-01-13T14:45:04.240Z,101422.47
2023-01-13T14:47:34.078Z,101427.81
2023-01-13T14:50:06.874Z,101424.81
2023-01-13T14:52:46.903Z,101420.78
2023-01-13T14:55:40.273Z,101414.88
2023-01-13T14:58:25.154Z,101418.97
2023-01-13T15:01:36.477Z,101429.69
2023-01-13T15:04:38.129Z,101432.56
2023-01-13T15:07:13.324Z,101420.31
2023-01-13T15:09:42.697Z,101418.47
2023-01-13T15:12:23.573Z,101416.25
2023-01-13T15:14:53.220Z,101410.00
2023-01-13T15:17:20.613Z,101413.41
2023-01-13T15:19:47.917Z,101427.63
2023-01-13T15:22:15.179Z,101422.56
2023-01-13T15:24:42.458Z,101424.75
2023-01-13T15:27:19.797Z,101425.91
2023-01-13T15:29:47.217Z,101434.56
2023-01-13T15:32:19.349Z,101444.59
2023-01-13T15:34:47.820Z,101444.25
2023-01-13T15:37:16.863Z,101433.41
2023-01-13T15:39:44.785Z,101446.63
2023-01-13T15:42:31.688Z,101451.91
2023-01-13T15:45:17.732Z,101459.69
2023-01-13T15:47:45.741Z,101456.53
2023-01-13T15:50:15.255Z,101465.03
2023-01-13T15:52:42.765Z,101485.00
2023-01-13T15:55:10.867Z,101497.13
2023-01-13T15:57:42.366Z,101489.72
2023-01-13T16:00:20.185Z,101488.72
2023-01-13T16:02:51.722Z,101493.47
2023-01-13T16:05:19.138Z,101504.88
2023-01-13T16:07:46.831Z,101497.84
2023-01-13T16:10:21.087Z,101488.97
2023-01-13T16:12:48.664Z,101483.41
2023-01-13T16:15:17.168Z,101489.19
2023-01-13T16:17:46.612Z,101484.78
2023-01-13T16:20:16.449Z,101487.31
2023-01-13T16:22:45.398Z,101471.69
2023-01-13T16:25:17.602Z,101472.44
2023-01-13T16:27:45.906Z,101470.63
2023-01-13T16:30:26.542Z,101473.16
2023-01-13T16:32:55.401Z,101476.00
2023-01-13T16:35:23.559Z,101468.09
2023-01-13T16:37:52.125Z,101460.84
2023-01-13T16:40:27.004Z,101460.69
2023-01-13T16:42:54.447Z,101459.97
2023-01-13T16:45:21.875Z,101472.59
2023-01-13T16:47:49.528Z,101471.28
2023-01-13T16:50:44.003Z,101483.06
2023-01-13T16:53:11.959Z,101483.38
2023-01-13T16:55:41.614Z,101493.28
2023-01-13T16:58:18.125Z,101492.81
2023-01-13T17:00:49.465Z,101497.44
2023-01-13T17:03:16.941Z,101488.97
2023-01-13T17:05:46.931Z,101487.50
2023-01-13T17:08:17.767Z,101495.06
2023-01-13T17:10:46.317Z,101496.13
2023-01-13T17:13:16.995Z,101498.00
2023-01-13T17:15:46.049Z,101503.22
2023-01-13T17:18:13.921Z,101513.53
2023-01-13T17:20:41.820Z,101513.53
2023-01-13T17:23:09.759Z,101517.41
2023-01-13T17:25:36.997Z,101532.47
2023-01-13T17:28:04.600Z,101527.13
2023-01-13T17:30:31.907Z,101523.53
2023-01-13T17:32:59.678Z,101538.25
2023-01-13T17:35:27.553Z,101547.34
2023-01-13T17:37:54.861Z,101548.59
2023-01-13T17:40:22.308Z,101542.44
2023-01-13T17:42:49.738Z,101550.13
2023-01-13T17:45:17.035Z,101551.13
2023-01-13T17:47:47.288Z,101560.97
2023-01-13T17:50:16.735Z,101555.56
2023-01-13T17:52:44.195Z,101557.25
2023-01-13T17:55:12.057Z,101572.19
2023-01-13T17:57:39.448Z,101571.72
2023-01-13T18:00:07.587Z,101572.34
2023-01-13T18:02:39.497Z,101584.47
2023-01-13T18:05:07.065Z,101593.41
2023-01-13T18:07:34.924Z,101592.69
2023-01-13T18:10:02.467Z,101597.69
2023-01-13T18:12:29.806Z,101596.59
2023-01-13T18:14:57.478Z,101600.28
2023-01-13T18:17:24.730Z,101591.19
2023-01-13T18:20:10.620Z,101594.13
2023-01-13T18:22:56.500Z,101597.66
2023-01-13T18:25:42.809Z,101591.47
2023-01-13T18:28:10.251Z,101603.06
2023-01-13T18:30:38.146Z,101590.31
2023-01-13T18:33:05.489Z,101597.84
2023-01-13T18:35:32.831Z,101596.56
2023-01-13T18:38:00.230Z,101597.97
2023-01-13T18:40:27.720Z,101592.00
2023-01-13T18:42:55.474Z,101587.00
2023-01-13T18:45:31.426Z,101593.88
2023-01-13T18:48:02.674Z,101601.69
2023-01-13T18:50:31.638Z,101607.34
2023-01-13T18:52:59.441Z,101605.38
2023-01-13T18:55:28.558Z,101611.19
2023-01-13T18:57:56.705Z,101604.50
2023-01-13T19:00:26.754Z,101611.34
2023-01-13T19:05:34.992Z,101608.94
2023-01-13T19:08:02.933Z,101612.91
2023-01-13T19:10:32.234Z,101608.81
2023-01-13T19:13:01.233Z,101606.50
2023-01-13T19:15:30.578Z,101616.59
2023-01-13T19:17:57.956Z,101625.00
2023-01-13T19:20:25.230Z,101622.41
2023-01-13T19:22:54.373Z,101622.97
2023-01-13T19:25:22.039Z,101619.88
2023-01-13T19:27:49.432Z,101612.19
2023-01-13T19:30:17.457Z,101608.91
2023-01-13T19:32:44.844Z,101605.66
2023-01-13T19:35:13.153Z,101604.22
2023-01-13T19:37:40.785Z,101607.06
2023-01-13T19:40:09.873Z,101615.03
2023-01-13T19:42:55.977Z,101621.81
2023-01-13T19:45:26.383Z,101624.94
2023-01-13T19:47:54.706Z,101630.78
2023-01-13T19:50:23.427Z,101625.91
2023-01-13T19:52:50.775Z,101629.22
2023-01-13T19:55:19.723Z,101631.91
2023-01-13T19:57:47.426Z,101621.25
2023-01-13T20:00:20.280Z,101628.66
2023-01-13T20:02:49.593Z,101637.53
2023-01-13T20:05:21.332Z,101646.78
2023-01-13T20:07:51.288Z,101647.06
2023-01-13T20:10:20.647Z,101639.56
2023-01-13T20:12:48.158Z,101635.81
2023-01-13T20:15:15.696Z,101634.41
2023-01-13T20:17:43.187Z,101632.19
2023-01-13T20:20:11.939Z,101648.66
2023-01-13T20:22:39.935Z,101655.47
2023-01-13T20:25:09.298Z,101644.28
2023-01-13T20:27:37.608Z,101656.31
2023-01-13T20:30:06.360Z,101663.47
2023-01-13T20:32:33.752Z,101663.19
2023-01-13T20:35:01.110Z,101664.91
2023-01-13T20:37:28.465Z,101662.63
2023-01-13T20:39:58.015Z,101659.91
2023-01-13T20:42:44.552Z,101660.22
2023-01-13T20:45:19.848Z,101665.84
2023-01-13T20:47:47.784Z,101663.16
2023-01-13T20:50:16.330Z,101679.78
2023-01-13T20:52:44.558Z,101682.16
2023-01-13T20:55:13.460Z,101680.03
2023-01-13T20:57:41.752Z,101683.91
2023-01-13T21:00:10.380Z,101684.56
2023-01-13T21:02:39.883Z,101676.66
2023-01-13T21:05:08.668Z,101684.47
2023-01-13T21:07:36.080Z,101687.97
2023-01-13T21:10:04.059Z,101686.34
2023-01-13T21:12:50.454Z,101687.88
2023-01-13T21:15:17.880Z,101690.09
2023-01-13T21:18:06.616Z,101697.88
2023-01-13T21:20:36.202Z,101696.97
2023-01-13T21:23:04.158Z,101690.78
2023-01-13T21:25:35.146Z,101691.25
2023-01-13T21:28:08.181Z,101689.47
2023-01-13T21:30:37.594Z,101690.66
2023-01-13T21:33:06.152Z,101682.69
2023-01-13T21:35:34.307Z,101692.41
2023-01-13T21:38:01.840Z,101700.25
2023-01-13T21:40:29.405Z,101695.50
2023-01-13T21:43:15.774Z,101690.34
2023-01-13T21:46:04.221Z,101691.28
2023-01-13T21:48:33.121Z,101704.88
2023-01-13T21:51:01.342Z,101704.22
2023-01-13T21:53:29.087Z,101707.81
2023-01-13T21:55:56.424Z,101707.81
2023-01-13T21:58:23.885Z,101708.94
2023-01-13T22:00:51.266Z,101725.69
2023-01-13T22:03:18.824Z,101724.75
2023-01-13T22:05:47.172Z,101721.84
2023-01-13T22:08:14.494Z,101716.16
2023-01-13T22:10:57.612Z,101717.53
2023-01-13T22:13:47.779Z,101720.09
2023-01-13T22:16:15.605Z,101717.22
2023-01-13T22:18:43.487Z,101720.84
2023-01-13T22:21:11.183Z,101721.47
2023-01-13T22:23:39.062Z,101712.34
2023-01-13T22:26:07.709Z,101724.72
2023-01-13T22:28:43.232Z,101725.16
2023-01-13T22:31:13.181Z,101724.75
2023-01-13T22:33:41.969Z,101728.16
2023-01-13T22:36:10.243Z,101730.59
2023-01-13T22:38:38.532Z,101730.16
2023-01-13T22:41:07.911Z,101732.63
2023-01-13T22:43:36.512Z,101732.47
2023-01-13T22:46:06.835Z,101728.16
2023-01-13T22:48:34.916Z,101730.16
2023-01-13T22:51:11.424Z,101731.25
2023-01-13T22:53:39.475Z,101719.91
2023-01-13T22:56:07.862Z,101728.28
2023-01-13T22:58:35.218Z,101736.00
2023-01-13T23:01:12.077Z,101741.69
2023-01-13T23:03:40.171Z,101751.31
2023-01-13T23:06:08.502Z,101748.41
2023-01-13T23:08:36.260Z,101746.50
2023-01-13T23:11:06.361Z,101735.00
2023-01-13T23:13:34.725Z,101732.91
2023-01-13T23:16:09.014Z,101724.91
2023-01-13T23:18:37.668Z,101729.31
2023-01-13T23:21:06.156Z,101725.66
2023-01-13T23:23:35.031Z,101732.09
2023-01-13T23:26:03.625Z,101733.06
2023-01-13T23:28:31.264Z,101727.19
2023-01-13T23:30:59.030Z,101740.63
2023-01-13T23:33:26.890Z,101743.00
2023-01-13T23:35:59.260Z,101740.59
2023-01-13T23:38:27.703Z,101738.28
2023-01-13T23:40:55.750Z,101746.72
2023-01-13T23:43:23.639Z,101755.03
2023-01-13T23:45:51.499Z,101757.78
2023-01-13T23:48:19.823Z,101764.63
2023-01-13T23:50:57.790Z,101758.25
2023-01-13T23:53:31.048Z,101762.03
2023-01-13T23:55:59.278Z,101756.44
2023-01-13T23:58:28.189Z,101753.25
